Time;durP1;ratioP1;P1;durP2;ratioP2;P2;SDS_P1;SDS_P2;PMS_P1;PMS_P2;Temp;Humidity;BMP_temperature;BMP_pressure;BME280_temperature;BME280_humidity;BME280_pressure;Samples;Min_cycle;Max_cycle;Signal;HPM_P1;HPM_P2
2023/12/04 00:02:00;;;;;;;10.33;8.87;;;;;;;;;;5040264;28;20235;-77
2023/12/04 00:04:27;;;;;;;9.97;8.33;;;;;;;;;;5050639;28;20217;-77
2023/12/04 00:06:54;;;;;;;15.00;9.37;;;;;;;;;;5047297;28;20231;-77
2023/12/04 00:09:23;;;;;;;10.17;8.10;;;;;;;;;;5043404;28;20634;-77
2023/12/04 00:11:50;;;;;;;11.03;9.47;;;;;;;;;;5046338;28;20723;-77
2023/12/04 00:14:17;;;;;;;11.13;8.70;;;;;;;;;;5049952;28;20239;-77
2023/12/04 00:16:44;;;;;;;8.60;7.47;;;;;;;;;;5046375;28;20762;-77
2023/12/04 00:19:13;;;;;;;14.03;10.10;;;;;;;;;;5050339;28;20252;-77
2023/12/04 00:21:40;;;;;;;12.87;9.27;;;;;;;;;;5050210;28;20283;-77
2023/12/04 00:24:07;;;;;;;8.73;7.87;;;;;;;;;;5049810;28;20205;-77
2023/12/04 00:26:34;;;;;;;10.00;7.37;;;;;;;;;;5050310;28;20233;-77
2023/12/04 00:29:01;;;;;;;11.93;8.43;;;;;;;;;;5050013;28;20210;-77
2023/12/04 00:31:28;;;;;;;7.93;7.13;;;;;;;;;;5061889;28;20221;-77
2023/12/04 00:33:55;;;;;;;10.33;7.47;;;;;;;;;;5071503;28;20209;-77
2023/12/04 00:36:23;;;;;;;10.97;8.33;;;;;;;;;;5075965;28;20302;-77
2023/12/04 00:38:50;;;;;;;13.83;8.60;;;;;;;;;;5082077;28;20253;-77
2023/12/04 00:41:17;;;;;;;8.83;7.30;;;;;;;;;;5081871;28;20647;-77
2023/12/04 00:43:44;;;;;;;17.10;7.67;;;;;;;;;;5078932;28;20205;-77
2023/12/04 00:46:11;;;;;;;12.87;8.30;;;;;;;;;;5068633;28;20242;-77
2023/12/04 00:48:38;;;;;;;16.27;9.07;;;;;;;;;;5050319;28;20202;-77
2023/12/04 00:51:05;;;;;;;10.83;8.17;;;;;;;;;;5049643;28;20230;-77
2023/12/04 00:53:34;;;;;;;12.77;7.57;;;;;;;;;;5049926;28;20646;-77
2023/12/04 00:56:01;;;;;;;11.03;8.27;;;;;;;;;;5049279;28;20291;-77
2023/12/04 00:58:28;;;;;;;9.63;7.60;;;;;;;;;;5048357;28;20210;-77
2023/12/04 01:00:56;;;;;;;12.63;7.80;;;;;;;;;;5046132;28;20238;-77
2023/12/04 01:03:26;;;;;;;11.30;8.03;;;;;;;;;;5050244;28;20214;-77
2023/12/04 01:05:53;;;;;;;9.30;7.80;;;;;;;;;;5052225;28;20418;-77
2023/12/04 01:08:20;;;;;;;9.30;8.00;;;;;;;;;;5044619;28;20206;-77
2023/12/04 01:10:48;;;;;;;10.90;6.93;;;;;;;;;;5047457;28;20230;-77
2023/12/04 01:13:15;;;;;;;9.40;8.17;;;;;;;;;;5052534;28;20198;-77
2023/12/04 01:15:44;;;;;;;8.70;7.50;;;;;;;;;;5048011;28;20246;-77
2023/12/04 01:18:11;;;;;;;10.53;8.13;;;;;;;;;;5053580;28;20233;-77
2023/12/04 01:20:38;;;;;;;11.53;7.37;;;;;;;;;;5057624;28;20336;-77
2023/12/04 01:23:05;;;;;;;9.60;6.83;;;;;;;;;;5079131;28;20205;-77
2023/12/04 01:25:33;;;;;;;11.43;8.47;;;;;;;;;;5074638;28;20238;-77
2023/12/04 01:28:01;;;;;;;9.73;7.93;;;;;;;;;;5055427;28;20857;-77
2023/12/04 01:30:28;;;;;;;9.97;7.07;;;;;;;;;;5059715;28;20232;-77
2023/12/04 01:32:55;;;;;;;11.93;7.83;;;;;;;;;;5081486;28;20201;-77
2023/12/04 01:35:22;;;;;;;13.20;9.00;;;;;;;;;;5084630;28;20663;-77
2023/12/04 01:37:49;;;;;;;10.73;8.47;;;;;;;;;;5077457;28;20209;-77
2023/12/04 01:40:16;;;;;;;10.03;7.87;;;;;;;;;;5079346;28;20622;-77
2023/12/04 01:42:44;;;;;;;11.53;8.57;;;;;;;;;;5052694;28;20697;-77
2023/12/04 01:45:12;;;;;;;11.70;9.60;;;;;;;;;;5046961;28;20202;-78
2023/12/04 01:47:39;;;;;;;9.97;7.87;;;;;;;;;;5053069;28;20209;-77
2023/12/04 01:50:07;;;;;;;12.93;8.67;;;;;;;;;;5052292;28;20271;-78
2023/12/04 01:52:35;;;;;;;13.43;8.10;;;;;;;;;;5050851;28;20256;-77
2023/12/04 01:55:02;;;;;;;10.87;7.63;;;;;;;;;;5050156;28;20212;-77
2023/12/04 01:57:29;;;;;;;8.90;6.87;;;;;;;;;;5052346;28;20282;-77
2023/12/04 01:59:56;;;;;;;8.83;7.83;;;;;;;;;;5049222;28;20206;-77
2023/12/04 02:02:24;;;;;;;11.00;7.03;;;;;;;;;;5068947;28;20233;-77
2023/12/04 02:04:52;;;;;;;12.90;8.07;;;;;;;;;;5072728;28;20232;-78
2023/12/04 02:07:19;;;;;;;8.00;7.23;;;;;;;;;;5076844;28;20241;-77
2023/12/04 02:09:47;;;;;;;13.27;7.50;;;;;;;;;;5081953;28;20219;-77
2023/12/04 02:12:14;;;;;;;11.27;8.20;;;;;;;;;;5082696;28;20290;-77
2023/12/04 02:14:41;;;;;;;11.70;8.83;;;;;;;;;;5080839;28;20308;-77
2023/12/04 02:17:09;;;;;;;11.40;7.73;;;;;;;;;;5080810;28;20233;-77
2023/12/04 02:19:38;;;;;;;9.93;8.33;;;;;;;;;;5079031;28;20202;-77
2023/12/04 02:22:05;;;;;;;14.27;9.27;;;;;;;;;;5080810;28;20231;-77
2023/12/04 02:24:34;;;;;;;13.43;10.10;;;;;;;;;;5068353;28;20289;-77
2023/12/04 02:27:06;;;;;;;12.53;7.87;;;;;;;;;;5077608;28;20252;-77
2023/12/04 02:29:37;;;;;;;8.60;7.80;;;;;;;;;;5078506;28;20219;-77
2023/12/04 02:32:05;;;;;;;11.47;8.60;;;;;;;;;;5078091;28;20770;-77
2023/12/04 02:34:34;;;;;;;12.90;8.23;;;;;;;;;;5081130;28;20205;-77
2023/12/04 02:37:01;;;;;;;11.03;8.37;;;;;;;;;;5058160;28;20237;-77
2023/12/04 02:39:28;;;;;;;11.40;7.77;;;;;;;;;;5047436;28;20211;-77
2023/12/04 02:41:57;;;;;;;9.63;7.70;;;;;;;;;;5040251;28;20615;-77
2023/12/04 02:44:24;;;;;;;8.67;7.77;;;;;;;;;;5040541;28;20207;-77
2023/12/04 02:46:52;;;;;;;8.37;7.50;;;;;;;;;;5047042;28;20241;-77
2023/12/04 02:49:19;;;;;;;9.23;8.20;;;;;;;;;;5050638;28;20218;-77
2023/12/04 02:51:46;;;;;;;12.00;8.17;;;;;;;;;;5049343;28;20225;-77
2023/12/04 02:54:13;;;;;;;13.03;9.30;;;;;;;;;;5048503;28;20202;-77
2023/12/04 02:56:40;;;;;;;9.33;7.30;;;;;;;;;;5051250;28;20233;-78
2023/12/04 02:59:08;;;;;;;10.67;8.63;;;;;;;;;;5043844;28;20208;-77
2023/12/04 03:01:35;;;;;;;12.90;8.80;;;;;;;;;;5051223;28;20326;-77
2023/12/04 03:04:03;;;;;;;9.73;8.60;;;;;;;;;;5051455;28;20206;-77
2023/12/04 03:06:30;;;;;;;12.10;8.03;;;;;;;;;;5051153;28;20239;-77
2023/12/04 03:08:57;;;;;;;12.13;8.50;;;;;;;;;;5050835;28;20220;-77
2023/12/04 03:11:24;;;;;;;14.27;8.37;;;;;;;;;;5051005;28;20631;-77
2023/12/04 03:13:51;;;;;;;11.67;8.57;;;;;;;;;;5049350;28;20210;-77
2023/12/04 03:16:20;;;;;;;10.13;7.60;;;;;;;;;;5047005;28;20600;-77
2023/12/04 03:18:47;;;;;;;13.33;7.80;;;;;;;;;;5048023;28;20221;-77
2023/12/04 03:21:14;;;;;;;10.73;8.47;;;;;;;;;;5045679;28;20223;-78
2023/12/04 03:23:41;;;;;;;12.43;7.93;;;;;;;;;;5051303;28;20665;-77
2023/12/04 03:26:08;;;;;;;11.03;8.30;;;;;;;;;;5050624;28;20234;-77
2023/12/04 03:28:35;;;;;;;14.13;10.07;;;;;;;;;;5050839;28;20202;-77
2023/12/04 03:31:03;;;;;;;14.00;9.40;;;;;;;;;;5050646;28;20247;-77
2023/12/04 03:33:32;;;;;;;8.90;7.73;;;;;;;;;;5051038;28;20214;-77
2023/12/04 03:36:00;;;;;;;15.53;9.83;;;;;;;;;;5050432;28;20241;-77
2023/12/04 03:38:27;;;;;;;14.67;9.07;;;;;;;;;;5050780;28;20217;-77
2023/12/04 03:40:54;;;;;;;11.40;9.07;;;;;;;;;;5050125;28;20299;-77
2023/12/04 03:43:21;;;;;;;12.27;8.27;;;;;;;;;;5051298;28;20695;-77
2023/12/04 03:45:48;;;;;;;12.13;8.57;;;;;;;;;;5047068;28;20233;-77
2023/12/04 03:48:15;;;;;;;18.97;9.70;;;;;;;;;;5051064;28;20701;-78
2023/12/04 03:50:43;;;;;;;15.03;8.33;;;;;;;;;;5044164;28;20260;-77
2023/12/04 03:53:10;;;;;;;11.23;8.87;;;;;;;;;;5051012;28;20259;-77
2023/12/04 03:55:37;;;;;;;9.93;8.10;;;;;;;;;;5051521;28;20286;-77
2023/12/04 03:58:05;;;;;;;13.97;9.67;;;;;;;;;;5070781;28;20220;-77
2023/12/04 04:00:32;;;;;;;13.00;8.77;;;;;;;;;;5070546;28;20242;-78
2023/12/04 04:02:59;;;;;;;9.80;8.33;;;;;;;;;;5070867;28;20714;-77
2023/12/04 04:05:26;;;;;;;12.07;9.47;;;;;;;;;;5070247;28;20224;-79
2023/12/04 04:07:54;;;;;;;15.40;8.73;;;;;;;;;;5071184;28;20593;-78
2023/12/04 04:10:21;;;;;;;11.43;7.53;;;;;;;;;;5070200;28;20264;-77
2023/12/04 04:12:49;;;;;;;8.80;6.70;;;;;;;;;;5074990;28;20221;-77
2023/12/04 04:15:16;;;;;;;10.87;8.77;;;;;;;;;;5067975;28;20213;-77
2023/12/04 04:17:43;;;;;;;12.43;9.00;;;;;;;;;;5079269;28;20631;-77
2023/12/04 04:20:11;;;;;;;13.40;9.47;;;;;;;;;;5068974;28;20254;-78
2023/12/04 04:22:40;;;;;;;9.30;8.03;;;;;;;;;;5050646;28;20259;-77
2023/12/04 04:25:09;;;;;;;13.90;9.67;;;;;;;;;;5051086;28;20229;-78
2023/12/04 04:27:36;;;;;;;14.90;9.60;;;;;;;;;;5078202;28;20205;-77
2023/12/04 04:30:04;;;;;;;14.00;8.60;;;;;;;;;;5079675;28;20208;-78
2023/12/04 04:32:31;;;;;;;8.47;7.50;;;;;;;;;;5075174;28;20255;-77
2023/12/04 04:34:58;;;;;;;8.27;7.37;;;;;;;;;;5079133;28;20210;-77
2023/12/04 04:37:25;;;;;;;12.50;9.00;;;;;;;;;;5045346;28;20716;-77
2023/12/04 04:39:52;;;;;;;11.30;8.43;;;;;;;;;;5051571;28;20206;-77
2023/12/04 04:42:20;;;;;;;13.53;9.53;;;;;;;;;;5048148;28;20230;-77
2023/12/04 04:44:47;;;;;;;9.73;7.70;;;;;;;;;;5048976;28;20206;-78
2023/12/04 04:47:14;;;;;;;9.90;7.83;;;;;;;;;;5050055;28;20230;-77
2023/12/04 04:49:42;;;;;;;10.57;8.33;;;;;;;;;;5051272;28;20210;-77
2023/12/04 04:52:09;;;;;;;14.40;8.93;;;;;;;;;;5069696;28;20229;-77
2023/12/04 04:54:36;;;;;;;14.07;9.17;;;;;;;;;;5080592;28;20216;-77
2023/12/04 04:57:03;;;;;;;11.90;8.63;;;;;;;;;;5061984;28;20242;-77
2023/12/04 04:59:31;;;;;;;11.90;9.53;;;;;;;;;;5055790;28;20251;-77
2023/12/04 05:01:58;;;;;;;13.13;9.33;;;;;;;;;;5076443;28;20311;-77
2023/12/04 05:04:25;;;;;;;9.67;8.23;;;;;;;;;;5082187;28;20209;-77
2023/12/04 05:06:52;;;;;;;12.50;7.70;;;;;;;;;;5058232;28;20234;-77
2023/12/04 05:09:19;;;;;;;13.80;9.60;;;;;;;;;;5053490;28;20206;-77
2023/12/04 05:11:47;;;;;;;14.37;9.20;;;;;;;;;;5053541;28;20716;-77
2023/12/04 05:14:14;;;;;;;11.53;8.33;;;;;;;;;;5053453;28;20266;-77
2023/12/04 05:16:42;;;;;;;15.57;9.00;;;;;;;;;;5053505;28;20589;-77
2023/12/04 05:19:09;;;;;;;11.13;7.67;;;;;;;;;;5052978;28;20214;-77
2023/12/04 05:21:36;;;;;;;11.20;8.60;;;;;;;;;;5066317;28;20290;-77
2023/12/04 05:24:03;;;;;;;13.70;8.53;;;;;;;;;;5073485;28;20220;-77
2023/12/04 05:26:30;;;;;;;14.40;8.17;;;;;;;;;;5077252;28;20232;-77
2023/12/04 05:28:57;;;;;;;9.20;8.23;;;;;;;;;;5085080;28;20728;-77
2023/12/04 05:31:24;;;;;;;14.37;8.60;;;;;;;;;;5062770;28;20283;-77
2023/12/04 05:33:52;;;;;;;11.43;8.13;;;;;;;;;;5053745;28;20255;-77
2023/12/04 05:36:19;;;;;;;10.03;8.23;;;;;;;;;;5051871;28;20239;-77
2023/12/04 05:38:46;;;;;;;13.50;9.23;;;;;;;;;;5053354;28;20288;-78
2023/12/04 05:41:13;;;;;;;12.73;8.27;;;;;;;;;;5053060;28;20237;-78
2023/12/04 05:43:40;;;;;;;10.03;8.80;;;;;;;;;;5053364;28;20299;-78
2023/12/04 05:46:07;;;;;;;13.63;8.23;;;;;;;;;;5052803;28;20242;-78
2023/12/04 05:48:35;;;;;;;10.20;7.77;;;;;;;;;;5053349;28;20206;-77
2023/12/04 05:51:03;;;;;;;9.70;7.83;;;;;;;;;;5052292;28;20631;-78
2023/12/04 05:53:30;;;;;;;14.67;8.90;;;;;;;;;;5053042;28;20270;-77
2023/12/04 05:55:57;;;;;;;11.93;7.97;;;;;;;;;;5052532;28;20229;-77
2023/12/04 05:58:24;;;;;;;15.43;9.33;;;;;;;;;;5052645;28;20209;-77
2023/12/04 06:00:51;;;;;;;14.57;8.40;;;;;;;;;;5053807;28;20229;-77
2023/12/04 06:03:18;;;;;;;17.73;8.97;;;;;;;;;;5051685;28;20218;-77
2023/12/04 06:05:45;;;;;;;11.13;7.60;;;;;;;;;;5052444;28;20237;-78
2023/12/04 06:08:14;;;;;;;11.93;8.87;;;;;;;;;;5049239;28;20209;-76
2023/12/04 06:10:41;;;;;;;9.50;7.20;;;;;;;;;;5055028;28;20311;-75
2023/12/04 06:13:08;;;;;;;11.00;7.90;;;;;;;;;;5073043;28;20204;-74
2023/12/04 06:15:35;;;;;;;11.80;8.23;;;;;;;;;;5073090;28;20723;-74
2023/12/04 06:18:02;;;;;;;10.43;7.43;;;;;;;;;;5072357;28;20205;-73
2023/12/04 06:20:29;;;;;;;10.80;7.47;;;;;;;;;;5068084;28;20236;-74
2023/12/04 06:22:56;;;;;;;10.50;7.37;;;;;;;;;;5052353;28;20590;-73
2023/12/04 06:25:25;;;;;;;8.47;7.57;;;;;;;;;;5055719;28;20698;-74
2023/12/04 06:27:53;;;;;;;9.10;8.17;;;;;;;;;;5080477;28;20208;-73
2023/12/04 06:30:20;;;;;;;9.10;7.93;;;;;;;;;;5077574;28;20206;-73
2023/12/04 06:32:48;;;;;;;12.30;8.07;;;;;;;;;;5052151;28;20256;-73
2023/12/04 06:35:15;;;;;;;11.77;7.73;;;;;;;;;;5051582;28;20206;-73
2023/12/04 06:37:42;;;;;;;9.57;8.17;;;;;;;;;;5051976;28;20740;-73
2023/12/04 06:40:11;;;;;;;10.30;9.13;;;;;;;;;;5052361;28;20208;-74
2023/12/04 06:42:39;;;;;;;10.60;7.43;;;;;;;;;;5071667;28;20228;-73
2023/12/04 06:45:07;;;;;;;10.93;7.80;;;;;;;;;;5072319;28;20933;-74
2023/12/04 06:47:35;;;;;;;10.83;8.70;;;;;;;;;;5080323;28;20234;-73
2023/12/04 06:50:02;;;;;;;11.10;8.97;;;;;;;;;;5079683;28;20217;-74
2023/12/04 06:52:29;;;;;;;10.73;8.33;;;;;;;;;;5051602;28;20229;-74
2023/12/04 06:54:56;;;;;;;8.87;7.53;;;;;;;;;;5051698;28;20734;-74
2023/12/04 06:57:23;;;;;;;11.20;8.23;;;;;;;;;;5050956;28;20235;-74
2023/12/04 06:59:51;;;;;;;12.17;7.97;;;;;;;;;;5051603;28;20208;-74
2023/12/04 07:02:18;;;;;;;10.37;7.33;;;;;;;;;;5049914;28;20279;-74
2023/12/04 07:04:45;;;;;;;11.80;7.77;;;;;;;;;;5051638;28;20202;-74
2023/12/04 07:07:12;;;;;;;10.77;7.73;;;;;;;;;;5051342;28;20234;-73
2023/12/04 07:09:39;;;;;;;12.60;9.07;;;;;;;;;;5043339;28;20730;-74
2023/12/04 07:12:07;;;;;;;10.30;8.60;;;;;;;;;;5050934;28;20321;-74
2023/12/04 07:14:34;;;;;;;11.77;8.37;;;;;;;;;;5051145;28;20210;-74
2023/12/04 07:17:02;;;;;;;10.43;9.33;;;;;;;;;;5051343;28;20324;-74
2023/12/04 07:19:30;;;;;;;8.60;7.73;;;;;;;;;;5050997;28;20622;-74
2023/12/04 07:21:57;;;;;;;14.03;8.70;;;;;;;;;;5051137;28;20225;-74
2023/12/04 07:24:26;;;;;;;11.77;7.93;;;;;;;;;;5051055;28;20222;-74
2023/12/04 07:26:53;;;;;;;8.57;7.53;;;;;;;;;;5051105;28;20237;-74
2023/12/04 07:29:20;;;;;;;13.53;8.40;;;;;;;;;;5050598;28;20282;-74
2023/12/04 07:31:47;;;;;;;13.57;8.93;;;;;;;;;;5050798;28;20226;-74
2023/12/04 07:34:16;;;;;;;11.07;8.43;;;;;;;;;;5051123;28;20205;-74
2023/12/04 07:36:44;;;;;;;10.67;8.30;;;;;;;;;;5057074;28;20637;-74
2023/12/04 07:39:11;;;;;;;14.93;9.50;;;;;;;;;;5071053;28;20201;-74
2023/12/04 07:41:38;;;;;;;9.43;7.73;;;;;;;;;;5075376;28;20228;-74
2023/12/04 07:44:05;;;;;;;12.90;8.27;;;;;;;;;;5082489;28;20213;-74
2023/12/04 07:46:32;;;;;;;12.73;8.07;;;;;;;;;;5079835;28;20260;-74
2023/12/04 07:48:59;;;;;;;12.33;8.00;;;;;;;;;;5083359;28;20202;-74
2023/12/04 07:51:27;;;;;;;10.80;9.37;;;;;;;;;;5080334;28;20433;-74
2023/12/04 07:53:54;;;;;;;7.63;6.80;;;;;;;;;;5083106;28;20200;-75
2023/12/04 07:56:21;;;;;;;15.73;8.60;;;;;;;;;;5058996;28;20252;-74
2023/12/04 07:58:48;;;;;;;11.40;8.13;;;;;;;;;;5050980;28;20213;-74
2023/12/04 08:01:16;;;;;;;10.83;8.57;;;;;;;;;;5049971;28;20264;-74
2023/12/04 08:03:43;;;;;;;8.30;7.40;;;;;;;;;;5050424;28;20708;-74
2023/12/04 08:06:10;;;;;;;11.53;8.47;;;;;;;;;;5059691;28;20229;-74
2023/12/04 08:08:38;;;;;;;18.03;7.03;;;;;;;;;;5070959;28;20209;-73
2023/12/04 08:11:05;;;;;;;9.57;7.47;;;;;;;;;;5072211;28;20225;-74
2023/12/04 08:13:32;;;;;;;17.10;8.83;;;;;;;;;;5082415;28;20205;-74
2023/12/04 08:16:00;;;;;;;9.90;7.77;;;;;;;;;;5072785;28;20707;-73
2023/12/04 08:18:27;;;;;;;9.50;7.53;;;;;;;;;;5056344;28;20204;-73
2023/12/04 08:20:54;;;;;;;9.03;7.07;;;;;;;;;;5056266;28;20229;-73
2023/12/04 08:23:21;;;;;;;10.67;7.77;;;;;;;;;;5055239;28;20218;-74
2023/12/04 08:25:49;;;;;;;11.70;7.80;;;;;;;;;;5054187;28;20298;-75
2023/12/04 08:28:17;;;;;;;13.13;9.27;;;;;;;;;;5054653;28;20206;-74
2023/12/04 08:30:44;;;;;;;7.97;6.70;;;;;;;;;;5054147;28;20233;-75
2023/12/04 08:33:10;;;;;;;8.87;7.13;;;;;;;;;;5054477;28;20267;-75
2023/12/04 08:35:37;;;;;;;8.27;6.23;;;;;;;;;;5053954;28;20283;-74
2023/12/04 08:38:05;;;;;;;9.37;8.17;;;;;;;;;;5054580;28;20198;-74
2023/12/04 08:40:32;;;;;;;14.80;9.20;;;;;;;;;;5053648;28;20287;-75
2023/12/04 08:43:00;;;;;;;13.33;8.30;;;;;;;;;;5054539;28;20202;-74
2023/12/04 08:45:27;;;;;;;10.43;7.37;;;;;;;;;;5053538;28;20229;-74
2023/12/04 08:47:54;;;;;;;15.60;8.90;;;;;;;;;;5054080;28;20204;-74
2023/12/04 08:50:21;;;;;;;11.00;7.73;;;;;;;;;;5053550;28;20722;-74
2023/12/04 08:52:48;;;;;;;14.40;7.60;;;;;;;;;;5054143;28;20214;-73
2023/12/04 08:55:15;;;;;;;10.07;8.10;;;;;;;;;;5053699;28;20206;-73
2023/12/04 08:57:42;;;;;;;9.23;6.87;;;;;;;;;;5053919;28;20209;-74
2023/12/04 09:00:11;;;;;;;11.50;7.77;;;;;;;;;;5053529;28;20727;-75
2023/12/04 09:02:38;;;;;;;11.87;8.53;;;;;;;;;;5053876;28;20209;-74
2023/12/04 09:05:06;;;;;;;9.53;6.97;;;;;;;;;;5053361;28;20218;-75
2023/12/04 09:07:33;;;;;;;9.23;7.10;;;;;;;;;;5042733;28;20234;-74
2023/12/04 09:10:01;;;;;;;9.30;6.80;;;;;;;;;;5045607;28;20617;-74
2023/12/04 09:12:28;;;;;;;11.80;7.63;;;;;;;;;;5051472;28;20311;-74
2023/12/04 09:14:55;;;;;;;7.37;6.43;;;;;;;;;;5052208;28;20213;-74
2023/12/04 09:17:23;;;;;;;11.50;7.07;;;;;;;;;;5051003;28;20233;-74
2023/12/04 09:19:50;;;;;;;12.47;8.13;;;;;;;;;;5038836;28;20210;-74
2023/12/04 09:22:17;;;;;;;10.87;7.77;;;;;;;;;;5051644;28;20234;-74
2023/12/04 09:24:45;;;;;;;8.90;6.93;;;;;;;;;;5051299;28;20225;-74
2023/12/04 09:27:12;;;;;;;10.87;8.33;;;;;;;;;;5050882;28;20317;-74
2023/12/04 09:29:39;;;;;;;8.23;6.67;;;;;;;;;;5050972;28;20268;-74
2023/12/04 09:32:06;;;;;;;9.77;7.00;;;;;;;;;;5051483;28;20227;-74
2023/12/04 09:34:34;;;;;;;9.73;6.37;;;;;;;;;;5050762;28;20210;-73
2023/12/04 09:37:01;;;;;;;11.13;7.43;;;;;;;;;;5051333;28;20267;-74
2023/12/04 09:39:29;;;;;;;8.43;7.43;;;;;;;;;;5055443;28;20246;-74
2023/12/04 09:41:57;;;;;;;8.67;6.53;;;;;;;;;;5051019;28;20232;-74
2023/12/04 09:44:26;;;;;;;9.63;6.83;;;;;;;;;;5051614;28;20572;-74
2023/12/04 09:46:53;;;;;;;9.53;6.63;;;;;;;;;;5051184;28;20233;-74
2023/12/04 09:49:20;;;;;;;8.27;7.03;;;;;;;;;;5051921;28;20210;-74
2023/12/04 09:51:48;;;;;;;10.50;7.37;;;;;;;;;;5050275;28;20303;-74
2023/12/04 09:54:19;;;;;;;8.73;7.37;;;;;;;;;;5050841;28;20211;-74
2023/12/04 09:56:46;;;;;;;9.73;7.37;;;;;;;;;;5050265;28;20325;-74
2023/12/04 09:59:14;;;;;;;9.87;7.90;;;;;;;;;;5052516;28;20229;-74
2023/12/04 10:01:42;;;;;;;8.47;7.27;;;;;;;;;;5051238;28;20235;-74
2023/12/04 10:04:09;;;;;;;11.83;7.63;;;;;;;;;;5051532;28;20401;-74
2023/12/04 10:06:38;;;;;;;9.33;7.87;;;;;;;;;;5050142;28;20654;-74
2023/12/04 10:09:11;;;;;;;9.93;7.63;;;;;;;;;;5050852;28;20237;-73
2023/12/04 10:11:40;;;;;;;8.17;6.70;;;;;;;;;;5048907;28;20615;-74
2023/12/04 10:14:14;;;;;;;8.60;7.10;;;;;;;;;;5051341;28;20276;-74
2023/12/04 10:16:41;;;;;;;8.70;7.17;;;;;;;;;;5049720;28;20732;-74
2023/12/04 10:19:16;;;;;;;8.03;7.23;;;;;;;;;;5052887;28;20263;-74
2023/12/04 10:21:43;;;;;;;10.60;7.17;;;;;;;;;;5050058;28;20225;-74
2023/12/04 10:24:12;;;;;;;13.03;7.17;;;;;;;;;;5050789;28;20225;-74
2023/12/04 10:26:39;;;;;;;9.77;7.30;;;;;;;;;;5058190;28;20259;-74
2023/12/04 10:29:06;;;;;;;6.13;5.53;;;;;;;;;;5050514;28;20777;-74
2023/12/04 10:31:34;;;;;;;7.03;6.33;;;;;;;;;;5047684;28;20237;-74
2023/12/04 10:34:01;;;;;;;10.07;7.97;;;;;;;;;;5050659;28;20211;-73
2023/12/04 10:36:29;;;;;;;10.47;8.20;;;;;;;;;;5049594;28;20641;-74
2023/12/04 10:39:00;;;;;;;9.03;7.73;;;;;;;;;;5049873;28;20207;-73
2023/12/04 10:41:29;;;;;;;8.83;7.27;;;;;;;;;;5049045;28;20314;-73
2023/12/04 10:43:58;;;;;;;10.87;7.53;;;;;;;;;;5050608;28;20598;-75
2023/12/04 10:46:25;;;;;;;7.83;6.90;;;;;;;;;;5050054;28;20238;-74
2023/12/04 10:48:52;;;;;;;9.70;7.37;;;;;;;;;;5050488;28;20211;-74
2023/12/04 10:51:21;;;;;;;12.63;7.60;;;;;;;;;;5049718;28;20267;-74
2023/12/04 10:53:49;;;;;;;8.00;7.07;;;;;;;;;;5049986;28;20213;-74
2023/12/04 10:56:19;;;;;;;10.60;7.30;;;;;;;;;;5049297;28;20280;-75
2023/12/04 10:58:50;;;;;;;8.60;6.83;;;;;;;;;;5051175;28;20212;-74
2023/12/04 11:01:18;;;;;;;15.97;7.57;;;;;;;;;;5049879;28;20332;-74
2023/12/04 11:03:46;;;;;;;8.47;7.20;;;;;;;;;;5048815;28;20302;-74
2023/12/04 11:06:13;;;;;;;12.17;5.97;;;;;;;;;;5047038;28;20232;-73
2023/12/04 11:08:42;;;;;;;10.80;8.17;;;;;;;;;;5050441;28;20220;-73
2023/12/04 11:11:11;;;;;;;7.07;5.97;;;;;;;;;;5050364;28;20262;-73
2023/12/04 11:13:41;;;;;;;10.97;7.90;;;;;;;;;;5052471;28;20224;-73
2023/12/04 11:16:13;;;;;;;8.20;7.20;;;;;;;;;;5058518;28;20239;-74
2023/12/04 11:18:44;;;;;;;9.93;6.57;;;;;;;;;;5069154;28;20276;-74
2023/12/04 11:21:12;;;;;;;17.97;7.47;;;;;;;;;;5059835;28;20229;-74
2023/12/04 11:23:39;;;;;;;11.77;7.03;;;;;;;;;;5049214;28;20216;-74
2023/12/04 11:26:07;;;;;;;10.57;7.90;;;;;;;;;;5049551;28;20688;-74
2023/12/04 11:28:36;;;;;;;10.20;7.83;;;;;;;;;;5049468;28;20216;-75
2023/12/04 11:31:03;;;;;;;8.10;5.87;;;;;;;;;;5045682;28;20235;-74
2023/12/04 11:33:35;;;;;;;11.37;7.83;;;;;;;;;;5049050;28;20304;-74
2023/12/04 11:36:07;;;;;;;10.60;7.63;;;;;;;;;;5045526;28;20239;-75
2023/12/04 11:38:36;;;;;;;9.67;7.33;;;;;;;;;;5049307;28;20626;-75
2023/12/04 11:41:13;;;;;;;8.07;7.23;;;;;;;;;;5048779;28;20232;-75
2023/12/04 11:43:43;;;;;;;9.10;7.00;;;;;;;;;;5048750;28;20213;-74
2023/12/04 11:46:11;;;;;;;9.50;7.47;;;;;;;;;;5048658;28;20233;-75
2023/12/04 11:48:39;;;;;;;10.53;6.93;;;;;;;;;;5048708;28;20216;-74
2023/12/04 11:51:07;;;;;;;11.27;8.03;;;;;;;;;;5048854;28;20236;-74
2023/12/04 11:53:38;;;;;;;14.40;7.07;;;;;;;;;;5046715;28;20299;-74
2023/12/04 11:56:10;;;;;;;10.07;7.53;;;;;;;;;;5048952;28;20327;-75
2023/12/04 11:58:43;;;;;;;12.03;7.60;;;;;;;;;;5048828;28;20741;-74
2023/12/04 12:01:11;;;;;;;8.97;7.17;;;;;;;;;;5048668;28;20228;-75
2023/12/04 12:03:40;;;;;;;11.33;8.40;;;;;;;;;;5049208;28;20213;-74
2023/12/04 12:06:07;;;;;;;9.03;7.13;;;;;;;;;;5049968;28;20228;-74
2023/12/04 12:08:34;;;;;;;9.97;7.77;;;;;;;;;;5049601;28;20216;-74
2023/12/04 12:11:01;;;;;;;8.80;6.83;;;;;;;;;;5049158;28;20231;-74
2023/12/04 12:13:28;;;;;;;9.30;7.10;;;;;;;;;;5050095;28;20220;-74
2023/12/04 12:15:58;;;;;;;10.30;8.03;;;;;;;;;;5049493;28;20243;-74
2023/12/04 12:18:25;;;;;;;9.00;7.37;;;;;;;;;;5049899;28;20224;-74
2023/12/04 12:20:55;;;;;;;10.53;6.60;;;;;;;;;;5048072;28;20253;-75
2023/12/04 12:23:23;;;;;;;6.03;5.20;;;;;;;;;;5050122;28;20667;-74
2023/12/04 12:25:50;;;;;;;7.00;6.30;;;;;;;;;;5049168;28;20475;-75
2023/12/04 12:28:17;;;;;;;7.53;6.50;;;;;;;;;;5049921;28;20675;-75
2023/12/04 12:30:45;;;;;;;10.77;7.53;;;;;;;;;;5048729;28;20247;-75
2023/12/04 12:33:14;;;;;;;9.47;7.80;;;;;;;;;;5049810;28;20263;-75
2023/12/04 12:35:41;;;;;;;8.80;6.57;;;;;;;;;;5048705;28;20240;-75
2023/12/04 12:38:09;;;;;;;9.20;7.40;;;;;;;;;;5050175;28;20241;-75
2023/12/04 12:40:36;;;;;;;9.30;7.60;;;;;;;;;;5048441;28;20237;-75
2023/12/04 12:43:06;;;;;;;10.07;6.37;;;;;;;;;;5049811;28;20260;-75
2023/12/04 12:45:40;;;;;;;12.03;6.60;;;;;;;;;;5048756;28;20241;-75
2023/12/04 12:48:07;;;;;;;9.77;7.13;;;;;;;;;;5049935;28;20320;-75
2023/12/04 12:50:34;;;;;;;9.57;6.40;;;;;;;;;;5048544;28;20845;-75
2023/12/04 12:53:03;;;;;;;11.60;6.93;;;;;;;;;;5049253;28;20217;-75
2023/12/04 12:55:31;;;;;;;9.93;7.40;;;;;;;;;;5049064;28;20287;-75
2023/12/04 12:57:58;;;;;;;10.87;6.97;;;;;;;;;;5049525;28;20218;-75
2023/12/04 13:00:25;;;;;;;11.37;6.70;;;;;;;;;;5049144;28;20290;-75
2023/12/04 13:02:54;;;;;;;8.33;7.17;;;;;;;;;;5052721;28;20216;-75
2023/12/04 13:05:21;;;;;;;9.67;7.73;;;;;;;;;;5053085;28;20231;-75
2023/12/04 13:07:48;;;;;;;10.73;7.03;;;;;;;;;;5052691;28;20240;-75
2023/12/04 13:10:15;;;;;;;10.23;6.70;;;;;;;;;;5052727;28;20213;-75
2023/12/04 13:12:43;;;;;;;9.30;7.03;;;;;;;;;;5053006;28;20623;-75
2023/12/04 13:15:11;;;;;;;16.53;7.93;;;;;;;;;;5052750;28;20206;-75
2023/12/04 13:17:38;;;;;;;4.50;4.07;;;;;;;;;;5053195;28;20324;-75
2023/12/04 13:20:08;;;;;;;8.53;7.47;;;;;;;;;;5052034;28;20351;-75
2023/12/04 13:22:35;;;;;;;8.73;7.47;;;;;;;;;;5052883;28;20255;-75
2023/12/04 13:25:07;;;;;;;10.20;7.33;;;;;;;;;;5051621;28;20979;-77
2023/12/04 13:27:34;;;;;;;10.43;7.80;;;;;;;;;;5052989;28;20320;-75
2023/12/04 13:30:02;;;;;;;10.33;7.33;;;;;;;;;;5052351;28;20209;-75
2023/12/04 13:32:29;;;;;;;9.87;6.33;;;;;;;;;;5051968;28;20229;-75
2023/12/04 13:34:56;;;;;;;7.77;6.43;;;;;;;;;;5052489;28;20221;-76
2023/12/04 13:37:23;;;;;;;14.40;8.77;;;;;;;;;;5052429;28;20271;-75
2023/12/04 13:39:57;;;;;;;9.97;7.43;;;;;;;;;;5052211;28;20302;-75
2023/12/04 13:45:12;;;;;;;10.27;8.10;;;;;;;;;;5044635;28;20279;-75
2023/12/04 13:47:39;;;;;;;10.70;8.40;;;;;;;;;;5052257;28;20264;-75
2023/12/04 13:50:08;;;;;;;9.57;8.20;;;;;;;;;;5048811;28;20232;-75
2023/12/04 13:52:35;;;;;;;14.87;8.50;;;;;;;;;;5050954;28;20213;-75
2023/12/04 13:55:10;;;;;;;12.43;8.30;;;;;;;;;;5051814;28;20263;-77
2023/12/04 13:57:50;;;;;;;11.27;7.13;;;;;;;;;;5050154;28;20287;-74
2023/12/04 14:00:18;;;;;;;8.70;7.07;;;;;;;;;;5041775;28;20210;-74
2023/12/04 14:02:45;;;;;;;9.17;6.63;;;;;;;;;;5051669;28;20213;-74
2023/12/04 14:05:15;;;;;;;10.30;7.93;;;;;;;;;;5051945;28;20240;-76
2023/12/04 14:07:43;;;;;;;8.80;6.97;;;;;;;;;;5052268;28;20214;-75
2023/12/04 14:10:11;;;;;;;11.67;8.07;;;;;;;;;;5051130;28;20206;-75
2023/12/04 14:12:38;;;;;;;14.40;7.67;;;;;;;;;;5050926;28;20213;-75
2023/12/04 14:15:05;;;;;;;10.90;8.30;;;;;;;;;;5045658;28;20750;-77
2023/12/04 14:17:34;;;;;;;9.70;7.53;;;;;;;;;;5049115;28;20241;-76
2023/12/04 14:20:05;;;;;;;8.27;7.00;;;;;;;;;;5051176;28;20217;-76
2023/12/04 14:22:32;;;;;;;11.50;7.30;;;;;;;;;;5051290;28;20240;-76
2023/12/04 14:24:59;;;;;;;7.73;5.70;;;;;;;;;;5051586;28;20243;-76
2023/12/04 14:27:26;;;;;;;9.77;8.10;;;;;;;;;;5051402;28;20230;-76
2023/12/04 14:29:53;;;;;;;10.53;8.03;;;;;;;;;;5043241;28;20221;-76
2023/12/04 14:32:20;;;;;;;8.33;7.27;;;;;;;;;;5046005;28;20263;-76
2023/12/04 14:34:49;;;;;;;10.07;7.37;;;;;;;;;;5049692;28;20244;-76
2023/12/04 14:37:16;;;;;;;13.47;7.40;;;;;;;;;;5050382;28;20639;-76
2023/12/04 14:39:44;;;;;;;9.13;7.27;;;;;;;;;;5050488;28;20304;-76
2023/12/04 14:42:11;;;;;;;9.63;7.30;;;;;;;;;;5049576;28;20289;-76